createdAt,value
2018-12-29T00:01:43.624Z,92.50
2018-12-29T00:04:13.283Z,91.80
2018-12-29T00:06:42.944Z,91.10
2018-12-29T00:09:12.646Z,90.80
2018-12-29T00:11:42.347Z,90.20
2018-12-29T00:14:12.053Z,90.80
2018-12-29T00:16:41.731Z,91.60
2018-12-29T00:19:11.401Z,92.10
2018-12-29T00:21:41.052Z,92.70
2018-12-29T00:24:10.752Z,92.40
2018-12-29T00:26:40.418Z,92.40
2018-12-29T00:29:10.052Z,92.20
2018-12-29T00:31:39.758Z,93.10
2018-12-29T00:34:09.371Z,93.40
2018-12-29T00:36:39.012Z,92.70
2018-12-29T00:39:08.677Z,92.50
2018-12-29T00:41:38.348Z,92.60
2018-12-29T00:44:08.032Z,92.80
2018-12-29T00:46:37.736Z,92.40
2018-12-29T00:49:07.377Z,93.30
2018-12-29T00:51:37.043Z,94.60
2018-12-29T00:54:06.723Z,94.90
2018-12-29T00:56:36.408Z,94.40
2018-12-29T00:59:06.059Z,94.00
2018-12-29T01:01:35.728Z,93.80
2018-12-29T01:04:05.331Z,94.00
2018-12-29T01:06:34.969Z,94.40
2018-12-29T01:09:05.972Z,94.60
2018-12-29T01:11:35.600Z,94.70
2018-12-29T01:14:06.685Z,94.40
2018-12-29T01:16:36.420Z,94.20
2018-12-29T01:19:06.058Z,93.90
2018-12-29T01:21:35.726Z,93.70
2018-12-29T01:24:05.900Z,94.00
2018-12-29T01:26:35.572Z,94.30
2018-12-29T01:29:05.202Z,93.90
2018-12-29T01:31:34.895Z,94.00
2018-12-29T01:34:04.557Z,95.10
2018-12-29T01:36:34.199Z,94.90
2018-12-29T01:39:04.457Z,94.70
2018-12-29T01:41:34.268Z,94.90
2018-12-29T01:44:03.948Z,95.40
2018-12-29T01:46:33.753Z,96.30
2018-12-29T01:49:03.447Z,96.20
2018-12-29T01:51:33.116Z,95.90
2018-12-29T01:54:02.815Z,95.50
2018-12-29T01:56:32.455Z,94.90
2018-12-29T01:59:22.557Z,94.50
2018-12-29T02:01:52.147Z,94.10
2018-12-29T02:04:21.829Z,94.20
2018-12-29T02:06:51.728Z,94.30
2018-12-29T02:09:22.170Z,94.20
2018-12-29T02:11:51.880Z,94.70
2018-12-29T02:14:21.900Z,94.40
2018-12-29T02:16:52.030Z,94.70
2018-12-29T02:19:21.949Z,95.70
2018-12-29T02:21:52.095Z,96.60
2018-12-29T02:24:22.342Z,95.90
2018-12-29T02:26:52.663Z,96.10
2018-12-29T02:29:23.154Z,95.80
2018-12-29T02:31:53.287Z,96.10
2018-12-29T02:34:23.657Z,96.10
2018-12-29T02:36:53.352Z,96.40
2018-12-29T02:39:23.073Z,95.90
2018-12-29T02:41:52.701Z,96.10
2018-12-29T02:44:22.416Z,96.70
2018-12-29T02:46:52.040Z,97.00
2018-12-29T02:49:21.735Z,97.50
2018-12-29T02:51:51.418Z,97.70
2018-12-29T02:54:21.047Z,97.90
2018-12-29T02:56:50.746Z,97.70
2018-12-29T02:59:20.407Z,97.60
2018-12-29T03:01:50.061Z,97.00
2018-12-29T03:04:19.667Z,96.10
2018-12-29T03:06:49.397Z,96.30
2018-12-29T03:09:19.021Z,97.50
2018-12-29T03:11:48.691Z,97.80
2018-12-29T03:14:18.351Z,96.90
2018-12-29T03:16:48.020Z,96.30
2018-12-29T03:19:17.667Z,96.10
2018-12-29T03:21:47.775Z,96.30
2018-12-29T03:24:17.463Z,96.20
2018-12-29T03:26:47.100Z,96.10
2018-12-29T03:29:16.778Z,96.70
2018-12-29T03:31:46.545Z,98.40
2018-12-29T03:34:16.267Z,98.10
2018-12-29T03:36:45.985Z,97.70
2018-12-29T03:39:15.608Z,97.10
2018-12-29T03:41:45.293Z,97.10
2018-12-29T03:44:15.338Z,96.60
2018-12-29T03:46:45.003Z,96.00
2018-12-29T03:49:14.628Z,95.70
2018-12-29T03:51:44.292Z,95.90
2018-12-29T03:54:13.957Z,95.90
2018-12-29T03:56:43.601Z,96.00
2018-12-29T03:59:13.294Z,96.60
2018-12-29T04:01:42.950Z,96.70
2018-12-29T04:04:12.634Z,97.40
2018-12-29T04:06:42.515Z,97.80
2018-12-29T04:09:40.339Z,97.80
2018-12-29T04:12:22.231Z,97.70
2018-12-29T04:14:51.887Z,98.10
2018-12-29T04:17:21.500Z,98.20
2018-12-29T04:19:51.156Z,99.00
2018-12-29T04:22:21.311Z,98.70
2018-12-29T04:24:51.440Z,98.70
2018-12-29T04:27:21.144Z,99.10
2018-12-29T04:29:50.825Z,99.30
2018-12-29T04:32:20.530Z,98.80
2018-12-29T04:34:50.371Z,99.30
2018-12-29T04:37:20.605Z,99.00
2018-12-29T04:39:50.225Z,98.80
2018-12-29T04:42:19.883Z,98.60
2018-12-29T04:44:49.550Z,98.10
2018-12-29T04:47:19.762Z,97.90
2018-12-29T04:49:49.460Z,97.90
2018-12-29T04:52:19.097Z,97.80
2018-12-29T04:54:48.819Z,98.00
2018-12-29T04:57:18.756Z,98.70
2018-12-29T04:59:48.374Z,98.00
2018-12-29T05:02:17.991Z,98.00
2018-12-29T05:04:47.667Z,99.20
2018-12-29T05:07:17.320Z,99.20
2018-12-29T05:09:46.946Z,99.20
2018-12-29T05:12:17.000Z,98.70
2018-12-29T05:14:47.066Z,98.50
2018-12-29T05:17:17.301Z,98.80
2018-12-29T05:19:47.453Z,99.20
2018-12-29T05:22:19.698Z,99.20
2018-12-29T05:24:49.280Z,99.90
2018-12-29T05:27:22.023Z,99.90
2018-12-29T05:29:54.870Z,99.90
2018-12-29T05:32:27.643Z,99.90
2018-12-29T05:34:57.275Z,99.90
2018-12-29T05:37:26.955Z,99.90
2018-12-29T05:39:56.584Z,99.90
2018-12-29T05:42:26.233Z,99.90
2018-12-29T05:44:55.878Z,99.90
2018-12-29T05:47:30.274Z,99.90
2018-12-29T05:49:59.920Z,99.70
2018-12-29T05:52:29.653Z,99.50
2018-12-29T05:54:59.369Z,99.80
2018-12-29T05:57:31.645Z,99.90
2018-12-29T06:00:01.425Z,99.90
2018-12-29T06:02:34.281Z,99.90
2018-12-29T06:05:03.949Z,99.90
2018-12-29T06:07:35.122Z,99.90
2018-12-29T06:10:05.914Z,99.90
2018-12-29T06:12:35.537Z,99.90
2018-12-29T06:15:08.456Z,99.90
2018-12-29T06:17:41.782Z,99.90
2018-12-29T06:20:14.156Z,99.90
2018-12-29T06:22:46.723Z,99.90
2018-12-29T06:25:16.491Z,99.90
2018-12-29T06:27:48.056Z,99.90
2018-12-29T06:30:17.703Z,99.90
2018-12-29T06:32:50.936Z,99.80
2018-12-29T06:35:20.623Z,99.90
2018-12-29T06:37:50.363Z,99.60
2018-12-29T06:40:22.903Z,99.60
2018-12-29T06:42:52.586Z,99.70
2018-12-29T06:45:26.667Z,99.90
2018-12-29T06:47:53.599Z,99.90
2018-12-29T06:50:23.953Z,99.90
2018-12-29T06:52:53.580Z,99.90
2018-12-29T06:55:26.183Z,99.90
2018-12-29T06:57:55.855Z,99.90
2018-12-29T07:00:28.271Z,99.90
2018-12-29T07:02:58.323Z,99.90
2018-12-29T07:05:30.332Z,99.90
2018-12-29T07:08:05.724Z,99.90
2018-12-29T07:10:35.422Z,99.90
2018-12-29T07:13:05.192Z,99.90
2018-12-29T07:15:37.400Z,99.90
2018-12-29T07:18:10.812Z,99.90
2018-12-29T07:20:43.050Z,99.90
2018-12-29T07:23:14.984Z,99.90
2018-12-29T07:25:46.191Z,99.90
2018-12-29T07:28:17.402Z,99.90
2018-12-29T07:30:47.185Z,99.90
2018-12-29T07:33:16.809Z,99.90
2018-12-29T07:35:46.891Z,99.90
2018-12-29T07:38:16.632Z,99.90
2018-12-29T07:40:47.989Z,99.90
2018-12-29T07:43:17.749Z,99.90
2018-12-29T07:45:47.429Z,99.90
2018-12-29T07:48:17.069Z,99.90
2018-12-29T07:50:47.949Z,99.90
2018-12-29T07:53:17.587Z,99.90
2018-12-29T07:55:49.410Z,99.90
2018-12-29T07:58:19.144Z,99.90
2018-12-29T08:00:52.186Z,99.90
2018-12-29T08:03:25.083Z,99.90
2018-12-29T08:05:56.447Z,99.90
2018-12-29T08:08:27.172Z,99.90
2018-12-29T08:10:57.391Z,99.90
2018-12-29T08:13:28.896Z,99.90
2018-12-29T08:15:58.860Z,99.90
2018-12-29T08:18:28.594Z,99.90
2018-12-29T08:20:58.214Z,99.90
2018-12-29T08:23:27.951Z,99.90
2018-12-29T08:25:57.649Z,99.90
2018-12-29T08:28:27.313Z,99.90
2018-12-29T08:30:57.004Z,99.90
2018-12-29T08:33:26.710Z,99.90
2018-12-29T08:35:56.394Z,99.90
2018-12-29T08:38:26.048Z,99.90
2018-12-29T08:40:55.733Z,99.90
2018-12-29T08:43:25.443Z,99.90
2018-12-29T08:45:55.068Z,99.90
2018-12-29T08:48:25.704Z,99.90
2018-12-29T08:51:00.453Z,99.90
2018-12-29T08:53:30.174Z,99.90
2018-12-29T08:55:59.823Z,99.90
2018-12-29T08:58:29.478Z,99.90
2018-12-29T09:01:01.459Z,99.90
2018-12-29T09:03:34.984Z,99.90
2018-12-29T09:06:04.680Z,99.90
2018-12-29T09:08:37.379Z,99.90
2018-12-29T09:11:07.051Z,99.90
2018-12-29T09:13:39.286Z,99.90
2018-12-29T09:16:10.162Z,99.90
2018-12-29T09:18:41.542Z,99.90
2018-12-29T09:21:13.982Z,99.90
2018-12-29T09:23:46.033Z,99.90
2018-12-29T09:26:15.719Z,99.90
2018-12-29T09:28:52.820Z,99.90
2018-12-29T09:31:24.295Z,99.90
2018-12-29T09:34:01.936Z,99.90
2018-12-29T09:36:34.308Z,99.90
2018-12-29T09:39:06.857Z,99.90
2018-12-29T09:41:38.204Z,99.90
2018-12-29T09:44:07.830Z,99.90
2018-12-29T09:46:42.127Z,99.90
2018-12-29T09:49:11.770Z,99.90
2018-12-29T09:51:42.801Z,99.90
2018-12-29T09:54:12.486Z,99.90
2018-12-29T09:56:45.174Z,99.90
2018-12-29T09:59:14.893Z,99.90
2018-12-29T10:01:44.522Z,99.90
2018-12-29T10:04:14.217Z,99.90
2018-12-29T10:06:43.983Z,99.90
2018-12-29T10:09:13.608Z,99.90
2018-12-29T10:11:45.068Z,99.90
2018-12-29T10:17:13.879Z,99.90
2018-12-29T10:19:45.903Z,99.90
2018-12-29T10:22:18.668Z,99.90
2018-12-29T10:24:51.161Z,99.90
2018-12-29T10:27:21.164Z,99.90
2018-12-29T10:29:50.800Z,99.90
2018-12-29T10:32:20.505Z,99.90
2018-12-29T10:34:50.146Z,99.90
2018-12-29T10:37:19.965Z,99.90
2018-12-29T10:39:53.011Z,99.90
2018-12-29T10:42:25.319Z,99.90
2018-12-29T10:45:02.236Z,99.90
2018-12-29T10:47:34.950Z,99.90
2018-12-29T10:50:05.118Z,99.90
2018-12-29T10:52:36.703Z,99.90
2018-12-29T10:55:06.078Z,99.90
2018-12-29T10:57:35.751Z,99.90
2018-12-29T11:00:09.519Z,99.50
2018-12-29T11:02:39.519Z,98.30
2018-12-29T11:05:09.554Z,99.20
2018-12-29T11:07:39.451Z,98.00
2018-12-29T11:10:10.660Z,97.80
2018-12-29T11:12:42.879Z,96.70
2018-12-29T11:15:14.071Z,97.30
2018-12-29T11:17:43.787Z,96.30
2018-12-29T11:20:15.861Z,96.00
2018-12-29T11:22:47.408Z,94.90
2018-12-29T11:25:17.283Z,93.60
2018-12-29T11:27:46.933Z,93.70
2018-12-29T11:30:16.810Z,93.80
2018-12-29T11:32:46.456Z,93.60
2018-12-29T11:35:19.334Z,93.00
2018-12-29T11:37:51.546Z,93.20
2018-12-29T11:40:21.208Z,92.20
2018-12-29T11:42:50.862Z,91.50
2018-12-29T11:45:20.472Z,90.30
2018-12-29T11:47:50.232Z,88.60
2018-12-29T11:50:19.891Z,87.60
2018-12-29T11:52:49.536Z,86.40
2018-12-29T11:55:19.477Z,85.30
2018-12-29T11:57:55.895Z,84.10
2018-12-29T12:00:28.740Z,82.30
2018-12-29T12:03:10.671Z,80.00
2018-12-29T12:05:45.488Z,77.70
2018-12-29T12:08:17.572Z,73.70
2018-12-29T12:10:47.315Z,74.00
2018-12-29T12:13:19.643Z,74.30
2018-12-29T12:15:49.387Z,75.20
2018-12-29T12:18:30.406Z,74.10
2018-12-29T12:21:18.296Z,72.10
2018-12-29T12:23:50.279Z,69.00
2018-12-29T12:26:23.708Z,67.80
2018-12-29T12:28:57.623Z,66.90
2018-12-29T12:31:27.678Z,66.40
2018-12-29T12:33:57.293Z,65.70
2018-12-29T12:36:31.508Z,66.10
2018-12-29T12:39:04.544Z,64.70
2018-12-29T12:41:36.732Z,64.70
2018-12-29T12:44:07.616Z,62.80
2018-12-29T12:46:37.303Z,62.40
2018-12-29T12:49:11.324Z,61.50
2018-12-29T12:51:42.642Z,60.20
2018-12-29T12:54:20.177Z,60.60
2018-12-29T12:56:49.810Z,59.60
2018-12-29T12:59:20.057Z,60.30
2018-12-29T13:01:50.231Z,60.50
2018-12-29T13:04:19.889Z,59.40
2018-12-29T13:06:52.817Z,59.30
2018-12-29T13:09:25.493Z,58.50
2018-12-29T13:11:58.061Z,58.50
2018-12-29T13:14:27.715Z,59.20
2018-12-29T13:16:57.427Z,59.20
2018-12-29T13:19:28.671Z,59.30
2018-12-29T13:22:00.155Z,57.50
2018-12-29T13:24:30.857Z,57.00
2018-12-29T13:27:00.704Z,56.60
2018-12-29T13:29:32.026Z,56.30
2018-12-29T13:32:09.032Z,56.40
2018-12-29T13:34:36.146Z,55.90
2018-12-29T13:37:15.457Z,56.20
2018-12-29T13:39:45.115Z,55.80
2018-12-29T13:42:25.470Z,56.00
2018-12-29T13:44:50.026Z,56.00
2018-12-29T13:47:19.696Z,55.90
2018-12-29T13:49:51.763Z,54.60
2018-12-29T13:52:24.091Z,54.40
2018-12-29T13:54:55.376Z,54.40
2018-12-29T13:57:25.003Z,54.20
2018-12-29T13:59:55.963Z,55.00
2018-12-29T14:02:25.712Z,54.90
2018-12-29T14:04:59.659Z,55.00
2018-12-29T14:07:30.555Z,55.20
2018-12-29T14:10:01.661Z,54.90
2018-12-29T14:12:32.310Z,54.50
2018-12-29T14:15:03.207Z,54.40
2018-12-29T14:17:43.643Z,54.80
2018-12-29T14:20:13.309Z,54.20
2018-12-29T14:22:44.351Z,55.10
2018-12-29T14:25:14.015Z,55.40
2018-12-29T14:27:46.417Z,54.80
2018-12-29T14:30:21.259Z,55.00
2018-12-29T14:32:51.009Z,55.30
2018-12-29T14:35:20.764Z,55.40
2018-12-29T14:37:50.409Z,55.50
2018-12-29T14:40:20.200Z,55.60
2018-12-29T14:42:49.859Z,55.70
2018-12-29T14:45:19.513Z,55.70
2018-12-29T14:47:49.164Z,56.00
2018-12-29T14:50:18.776Z,56.20
2018-12-29T14:52:48.477Z,56.30
2018-12-29T14:55:18.088Z,56.20
2018-12-29T14:57:47.739Z,56.60
2018-12-29T15:00:17.417Z,56.80
2018-12-29T15:02:47.384Z,56.90
2018-12-29T15:05:17.007Z,57.10
2018-12-29T15:07:46.743Z,57.00
2018-12-29T15:10:16.411Z,57.00
2018-12-29T15:12:46.102Z,56.80
2018-12-29T15:15:16.089Z,56.80
2018-12-29T15:17:45.756Z,57.10
2018-12-29T15:20:15.786Z,57.10
2018-12-29T15:22:45.524Z,57.10
2018-12-29T15:25:15.260Z,57.20
2018-12-29T15:27:45.418Z,57.40
2018-12-29T15:30:15.066Z,57.40
2018-12-29T15:32:44.780Z,57.50
2018-12-29T15:35:14.451Z,57.40
2018-12-29T15:37:44.123Z,58.10
2018-12-29T15:40:14.091Z,57.70
2018-12-29T15:42:45.068Z,57.80
2018-12-29T15:45:17.423Z,58.00
2018-12-29T15:47:47.017Z,58.10
2018-12-29T15:50:16.696Z,58.20
2018-12-29T15:52:49.076Z,58.10
2018-12-29T15:55:25.720Z,58.20
2018-12-29T15:57:56.753Z,58.20
2018-12-29T16:00:26.465Z,58.20
2018-12-29T16:02:58.537Z,58.00
2018-12-29T16:05:30.602Z,58.20
2018-12-29T16:08:00.508Z,58.00
2018-12-29T16:10:31.358Z,58.20
2018-12-29T16:13:01.123Z,58.50
2018-12-29T16:15:32.793Z,58.60
2018-12-29T16:18:02.906Z,58.70
2018-12-29T16:20:35.989Z,58.90
2018-12-29T16:23:05.840Z,59.00
2018-12-29T16:25:35.511Z,59.30
2018-12-29T16:28:07.212Z,59.40
2018-12-29T16:30:36.570Z,59.60
2018-12-29T16:33:09.571Z,59.70
2018-12-29T16:35:40.581Z,59.90
2018-12-29T16:38:10.535Z,59.70
2018-12-29T16:40:43.173Z,59.70
2018-12-29T16:43:12.923Z,60.00
2018-12-29T16:45:45.756Z,60.50
2018-12-29T16:48:16.858Z,60.80
2018-12-29T16:50:46.570Z,60.60
2018-12-29T16:53:16.333Z,60.30
2018-12-29T16:55:46.090Z,60.10
2018-12-29T16:58:15.710Z,60.70
2018-12-29T17:00:45.580Z,61.70
2018-12-29T17:03:15.283Z,62.30
2018-12-29T17:05:47.111Z,61.60
2018-12-29T17:08:16.863Z,62.50
2018-12-29T17:10:50.110Z,63.50
2018-12-29T17:13:25.979Z,63.80
2018-12-29T17:15:55.724Z,63.60
2018-12-29T17:18:32.690Z,63.50
2018-12-29T17:21:02.190Z,63.50
2018-12-29T17:23:31.853Z,62.80
2018-12-29T17:26:01.620Z,62.10
2018-12-29T17:28:31.641Z,62.60
2018-12-29T17:31:01.306Z,63.10
2018-12-29T17:33:30.978Z,63.70
2018-12-29T17:36:00.675Z,64.00
2018-12-29T17:38:30.374Z,64.40
2018-12-29T17:41:00.547Z,65.80
2018-12-29T17:43:30.257Z,65.00
2018-12-29T17:45:59.993Z,65.20
2018-12-29T17:48:29.753Z,65.40
2018-12-29T17:50:59.489Z,65.40
2018-12-29T17:53:29.532Z,67.60
2018-12-29T17:55:59.212Z,68.30
2018-12-29T17:58:28.947Z,68.30
2018-12-29T18:00:58.627Z,68.50
2018-12-29T18:03:28.353Z,67.40
2018-12-29T18:05:58.275Z,68.20
2018-12-29T18:08:46.956Z,67.50
2018-12-29T18:11:16.670Z,67.40
2018-12-29T18:13:46.336Z,67.60
2018-12-29T18:16:16.550Z,67.70
2018-12-29T18:18:46.206Z,67.70
2018-12-29T18:21:15.830Z,67.50
2018-12-29T18:23:45.525Z,67.80
2018-12-29T18:26:15.153Z,68.40
2018-12-29T18:28:44.806Z,69.10
2018-12-29T18:31:14.481Z,67.70
2018-12-29T18:33:45.984Z,67.70
2018-12-29T18:36:15.479Z,67.80
2018-12-29T18:38:45.490Z,68.30
2018-12-29T18:41:15.138Z,68.40
2018-12-29T18:43:44.801Z,66.70
2018-12-29T18:46:14.444Z,66.80
2018-12-29T18:48:44.563Z,66.90
2018-12-29T18:51:14.229Z,66.70
2018-12-29T18:53:44.180Z,66.70
2018-12-29T18:56:13.842Z,66.60
2018-12-29T18:58:43.551Z,67.00
2018-12-29T19:01:14.301Z,70.00
2018-12-29T19:03:44.168Z,74.30
2018-12-29T19:06:14.021Z,70.90
2018-12-29T19:08:44.126Z,73.50
2018-12-29T19:11:14.803Z,73.00
2018-12-29T19:13:44.637Z,70.00
2018-12-29T19:16:14.984Z,68.80
2018-12-29T19:18:44.733Z,68.50
2018-12-29T19:21:14.849Z,68.40
2018-12-29T19:23:44.741Z,68.10
2018-12-29T19:26:14.752Z,68.10
2018-12-29T19:28:44.696Z,68.00
2018-12-29T19:31:14.941Z,67.60
2018-12-29T19:33:46.225Z,68.20
2018-12-29T19:36:15.857Z,69.00
2018-12-29T19:38:45.841Z,69.60
2018-12-29T19:41:16.044Z,69.40
2018-12-29T19:43:48.208Z,70.30
2018-12-29T19:46:18.210Z,71.00
2018-12-29T19:48:47.905Z,72.00
2018-12-29T19:51:17.585Z,72.30
2018-12-29T19:53:47.642Z,71.50
2018-12-29T19:56:17.323Z,72.80
2018-12-29T19:58:47.021Z,72.80
2018-12-29T20:01:16.709Z,72.80
2018-12-29T20:03:46.344Z,72.30
2018-12-29T20:06:16.040Z,71.70
2018-12-29T20:08:45.655Z,71.90
2018-12-29T20:11:15.334Z,71.90
2018-12-29T20:13:45.055Z,71.80
2018-12-29T20:16:14.804Z,72.20
2018-12-29T20:18:45.053Z,72.70
2018-12-29T20:21:14.685Z,71.40
2018-12-29T20:23:44.340Z,71.00
2018-12-29T20:26:14.401Z,70.90
2018-12-29T20:28:44.118Z,72.80
2018-12-29T20:31:13.779Z,72.80
2018-12-29T20:33:43.514Z,72.40
2018-12-29T20:36:13.119Z,71.50
2018-12-29T20:38:42.747Z,71.70
2018-12-29T20:41:12.402Z,72.30
2018-12-29T20:43:42.102Z,73.10
2018-12-29T20:46:12.138Z,73.40
2018-12-29T20:48:41.816Z,72.50
2018-12-29T20:51:11.435Z,71.70
2018-12-29T20:53:41.072Z,71.30
2018-12-29T20:56:10.756Z,72.20
2018-12-29T20:58:40.382Z,72.80
2018-12-29T21:01:10.030Z,72.80
2018-12-29T21:03:39.716Z,73.10
2018-12-29T21:06:10.330Z,73.20
2018-12-29T21:08:40.104Z,73.30
2018-12-29T21:11:09.782Z,72.80
2018-12-29T21:13:39.472Z,72.70
2018-12-29T21:16:09.166Z,72.60
2018-12-29T21:18:38.881Z,72.40
2018-12-29T21:21:08.758Z,71.60
2018-12-29T21:23:38.423Z,72.20
2018-12-29T21:26:08.131Z,72.80
2018-12-29T21:28:37.825Z,74.10
2018-12-29T21:31:07.539Z,74.80
2018-12-29T21:33:37.568Z,75.80
2018-12-29T21:36:07.189Z,76.00
2018-12-29T21:38:36.804Z,76.50
2018-12-29T21:41:06.500Z,77.00
2018-12-29T21:43:36.144Z,77.20
2018-12-29T21:46:05.985Z,77.80
2018-12-29T21:48:35.663Z,78.30
2018-12-29T21:51:05.319Z,78.30
2018-12-29T21:53:35.045Z,79.10
2018-12-29T21:56:04.772Z,78.60
2018-12-29T21:58:35.809Z,77.90
2018-12-29T22:01:05.463Z,77.50
2018-12-29T22:03:35.177Z,77.10
2018-12-29T22:06:04.866Z,77.90
2018-12-29T22:08:34.599Z,77.40
2018-12-29T22:11:04.699Z,78.10
2018-12-29T22:13:34.428Z,79.40
2018-12-29T22:16:04.120Z,79.90
2018-12-29T22:18:34.043Z,80.10
2018-12-29T22:21:03.720Z,81.20
2018-12-29T22:23:33.678Z,80.70
2018-12-29T22:26:03.399Z,81.00
2018-12-29T22:28:33.096Z,81.10
2018-12-29T22:31:02.811Z,81.30
2018-12-29T22:33:32.548Z,79.90
2018-12-29T22:36:02.245Z,79.40
2018-12-29T22:38:31.914Z,80.20
2018-12-29T22:41:01.826Z,80.40
2018-12-29T22:43:31.458Z,80.80
2018-12-29T22:46:01.083Z,81.10
2018-12-29T22:48:30.761Z,81.00
2018-12-29T22:51:00.391Z,81.60
2018-12-29T22:53:30.000Z,82.30
2018-12-29T22:55:59.710Z,82.90
2018-12-29T22:58:29.379Z,83.50
2018-12-29T23:01:00.629Z,83.50
2018-12-29T23:03:30.443Z,83.90
2018-12-29T23:06:00.098Z,84.30
2018-12-29T23:08:29.705Z,84.80
2018-12-29T23:10:59.801Z,84.60
2018-12-29T23:13:29.431Z,84.20
2018-12-29T23:15:59.147Z,84.20
2018-12-29T23:18:28.948Z,83.00
2018-12-29T23:20:59.141Z,82.70
2018-12-29T23:23:29.059Z,82.70
2018-12-29T23:25:59.218Z,81.40
2018-12-29T23:28:28.882Z,81.30
2018-12-29T23:30:58.913Z,81.60
2018-12-29T23:33:28.597Z,81.70
2018-12-29T23:35:58.266Z,82.10
2018-12-29T23:38:27.898Z,83.10
2018-12-29T23:40:57.552Z,84.20
2018-12-29T23:43:27.203Z,85.80
2018-12-29T23:45:56.883Z,84.50
2018-12-29T23:48:26.575Z,83.50
2018-12-29T23:51:13.809Z,83.30
2018-12-29T23:53:27.564Z,84.40
2018-12-29T23:55:57.498Z,83.70
2018-12-29T23:58:27.153Z,83.80
